createdAt,value
2019-04-23T09:36:06.282Z,60.62
2019-04-23T09:36:47.260Z,60.52
2019-04-23T09:38:06.884Z,60.24
2019-04-23T09:38:52.303Z,59.75
2019-04-23T09:39:34.153Z,59.75
2019-04-23T09:40:31.269Z,60.24
2019-04-23T09:41:03.903Z,58.79
2019-04-23T09:41:30.998Z,58.79
2019-04-23T09:42:23.834Z,58.98
2019-04-23T09:43:00.287Z,58.12
2019-04-23T09:43:36.529Z,58.31
2019-04-23T09:44:40.910Z,58.6
2019-04-23T09:45:12.374Z,58.4
2019-04-23T09:45:40.725Z,58.12
2019-04-23T09:46:23.262Z,58.12
2019-04-23T09:47:06.382Z,59.17
2019-04-23T09:47:50.277Z,58.22
2019-04-23T09:48:26.258Z,59.08
2019-04-23T09:49:14.294Z,58.6
2019-04-23T09:49:46.091Z,58.12
2019-04-23T09:51:07.544Z,58.4
2019-04-23T09:52:35.535Z,58.4
2019-04-23T09:54:02.699Z,58.4
2019-04-23T09:54:47.498Z,58.12
2019-04-23T09:55:33.254Z,58.4
2019-04-23T09:55:59.540Z,57.64
2019-04-23T09:56:47.130Z,57.54
2019-04-23T09:57:24.118Z,57.73
2019-04-23T09:58:41.308Z,57.45
2019-04-23T09:59:30.802Z,58.02
2019-04-23T10:00:16.626Z,58.12
2019-04-23T10:00:44.710Z,57.73
2019-04-23T10:01:28.792Z,58.5
2019-04-23T10:02:05.183Z,58.12
2019-04-23T10:02:46.877Z,58.12
2019-04-23T10:03:25.290Z,59.11
2019-04-23T10:04:11.157Z,59.37
2019-04-23T10:04:55.398Z,59.2
2019-04-23T10:05:30.773Z,59.37
2019-04-23T10:06:08.105Z,58.34
2019-04-23T10:06:57.278Z,58.63
2019-04-23T10:07:34.625Z,58.44
2019-04-23T10:08:13.744Z,57.67
2019-04-23T10:08:49.894Z,57.76
2019-04-23T10:09:27.526Z,57.47
2019-04-23T10:10:08.048Z,57.09
2019-04-23T10:10:49.180Z,57.37
2019-04-23T10:11:30.503Z,57.28
2019-04-23T10:12:11.526Z,57.37
2019-04-23T10:12:51.932Z,57.28
2019-04-23T10:13:34.283Z,57.37
2019-04-23T10:14:14.671Z,57.18
2019-04-23T10:15:05.334Z,57.47
2019-04-23T10:15:40.076Z,57.47
2019-04-23T10:16:19.299Z,57.18
2019-04-23T10:16:58.013Z,57.57
2019-04-23T10:17:38.139Z,58.82
2019-04-23T10:18:20.123Z,59.01
2019-04-23T10:19:00.946Z,59.11
2019-04-23T10:19:44.659Z,58.24
2019-04-23T10:20:26.785Z,56.32
2019-04-23T10:21:07.804Z,57.67
2019-04-23T10:21:49.162Z,57.57
2019-04-23T10:22:32.562Z,57.28
2019-04-23T10:23:12.346Z,57.09
2019-04-23T10:23:51.835Z,56.7
2019-04-23T10:24:32.888Z,56.99
2019-04-23T10:25:13.314Z,57.37
2019-04-23T10:25:54.193Z,57.67
2019-04-23T10:26:35.060Z,57.57
2019-04-23T10:27:16.983Z,57.47
2019-04-23T10:28:01.528Z,57.28
2019-04-23T10:28:38.599Z,56.8
2019-04-23T10:29:20.044Z,57.37
2019-04-23T10:30:04.078Z,56.9
2019-04-23T10:30:45.064Z,56.22
2019-04-23T10:31:27.015Z,56.8
2019-04-23T10:32:09.333Z,56.32
2019-04-23T10:32:49.485Z,56.9
2019-04-23T10:33:29.948Z,56.6
2019-04-23T10:34:12.232Z,56.51
2019-04-23T10:35:01.198Z,56.7
2019-04-23T10:35:40.964Z,56.99
2019-04-23T10:36:17.222Z,57.37
2019-04-23T10:36:55.567Z,57.28
2019-04-23T10:37:44.505Z,57.18
2019-04-23T10:38:18.566Z,56.41
2019-04-23T10:39:03.392Z,56.41
2019-04-23T10:39:40.895Z,56.7
2019-04-23T10:40:23.773Z,56.99
2019-04-23T10:41:00.349Z,55.93
2019-04-23T10:41:43.657Z,56.22
2019-04-23T10:42:21.869Z,56.99
2019-04-23T10:43:05.012Z,56.51
2019-04-23T10:43:45.653Z,56.25
2019-04-23T10:44:25.576Z,56.22
2019-04-23T10:45:19.016Z,55.96
2019-04-23T10:46:07.516Z,55.96
2019-04-23T10:46:46.578Z,55.67
2019-04-23T10:47:44.521Z,56.25
2019-04-23T10:49:09.249Z,56.44
2019-04-23T10:49:47.342Z,56.54
2019-04-23T10:50:25.867Z,56.44
2019-04-23T10:50:54.288Z,56.54
2019-04-23T10:51:56.732Z,55.57
2019-04-23T10:53:07.369Z,56.25
2019-04-23T10:53:42.395Z,55.93
2019-04-23T10:55:05.704Z,55.67
2019-04-23T10:55:53.482Z,55.67
2019-04-23T10:56:33.888Z,55.48
2019-04-23T10:57:03.607Z,55.55
2019-04-23T10:57:43.496Z,55.57
2019-04-23T10:58:29.898Z,55.29
2019-04-23T10:59:10.117Z,55.57
2019-04-23T10:59:46.196Z,56.35
2019-04-23T11:01:20.643Z,57.21
2019-04-23T11:02:08.045Z,57.5
2019-04-23T11:02:47.165Z,56.54
2019-04-23T11:03:31.343Z,56.44
2019-04-23T11:04:04.165Z,56.73
2019-04-23T11:05:28.374Z,56.25
2019-04-23T11:06:04.165Z,56.54
2019-04-23T11:06:44.930Z,56.35
2019-04-23T11:08:01.532Z,56.25
2019-04-23T11:08:40.363Z,56.44
2019-04-23T11:09:42.192Z,56.73
2019-04-23T11:10:21.807Z,56.05
2019-04-23T11:10:49.401Z,55.67
2019-04-23T11:11:34.160Z,56.25
2019-04-23T11:12:48.238Z,55.48
2019-04-23T11:13:44.749Z,56.15
2019-04-23T11:14:30.537Z,56.05
2019-04-23T11:15:18.104Z,55.96
2019-04-23T11:16:08.211Z,56.15
2019-04-23T11:17:14.318Z,56.25
2019-04-23T11:17:47.427Z,56.44
2019-04-23T11:18:44.858Z,56.54
2019-04-23T11:19:14.046Z,56.35
2019-04-23T11:20:40.997Z,55.57
2019-04-23T11:22:15.487Z,56.54
2019-04-23T11:22:44.820Z,56.63
2019-04-23T11:23:22.233Z,55.87
2019-04-23T11:24:08.834Z,56.35
2019-04-23T11:24:48.098Z,56.73
2019-04-23T11:25:31.012Z,56.82
2019-04-23T11:26:13.723Z,56.25
2019-04-23T11:26:54.710Z,56.25
2019-04-23T11:27:41.847Z,56.92
2019-04-23T11:28:25.558Z,56.73
2019-04-23T11:29:10.821Z,57.02
2019-04-23T11:29:48.162Z,56.05
2019-04-23T11:31:23.518Z,56.35
2019-04-23T11:32:04.209Z,55.57
2019-04-23T11:32:59.877Z,55.57
2019-04-23T11:33:18.269Z,55.77
2019-04-23T11:36:51.925Z,54.32
2019-04-23T11:37:47.569Z,54.8
2019-04-23T11:38:33.858Z,54.42
2019-04-23T11:38:52.158Z,54.52
2019-04-23T11:39:30.762Z,54.49
2019-04-23T11:40:41.392Z,55.35
2019-04-23T11:41:41.338Z,55.65
2019-04-23T11:42:09.931Z,55.93
2019-04-23T11:42:57.008Z,56.54
2019-04-23T11:44:18.604Z,55.96
2019-04-23T11:44:54.914Z,55.77
2019-04-23T11:46:32.056Z,56.44
2019-04-23T11:47:00.364Z,55.96
2019-04-23T11:50:39.226Z,56.47
2019-04-23T11:51:34.649Z,56.25
2019-04-23T11:51:52.224Z,55.41
2019-04-23T11:52:35.426Z,56.44
2019-04-23T11:53:09.503Z,56.35
2019-04-23T11:53:47.531Z,56.35
2019-04-23T11:54:30.112Z,56.25
2019-04-23T11:55:25.987Z,55.57
2019-04-23T11:55:51.504Z,56.18
2019-04-23T11:57:28.774Z,56.54
2019-04-23T11:58:11.317Z,55.87
2019-04-23T11:58:35.571Z,55.41
2019-04-23T11:59:24.879Z,55
2019-04-23T11:59:57.122Z,55.31
2019-04-23T12:00:48.815Z,55.41
2019-04-23T12:01:36.994Z,55.31
2019-04-23T12:01:55.109Z,55.51
2019-04-23T12:02:43.069Z,55.99
2019-04-23T12:03:16.712Z,56.27
2019-04-23T12:04:45.127Z,56.27
2019-04-23T12:05:26.420Z,55.7
2019-04-23T12:06:45.508Z,55.31
2019-04-23T12:07:29.382Z,55.6
2019-04-23T12:08:15.092Z,56.15
2019-04-23T12:09:04.435Z,55.87
2019-04-23T12:09:39.506Z,56.15
2019-04-23T12:10:10.709Z,55.57
2019-04-23T12:10:57.461Z,56.44
2019-04-23T12:12:16.707Z,55.29
2019-04-23T12:12:52.276Z,57.21
2019-04-23T12:13:50.986Z,56.73
2019-04-23T12:14:34.778Z,55.67
2019-04-23T12:15:01.443Z,55.48
2019-04-23T12:15:37.306Z,55
2019-04-23T12:16:19.938Z,54.71
2019-04-23T12:17:40.532Z,55.29
2019-04-23T12:18:25.233Z,55.41
2019-04-23T12:19:21.218Z,55.38
2019-04-23T12:20:26.572Z,54.64
2019-04-23T12:21:03.569Z,55.29
2019-04-23T12:21:52.134Z,54.71
2019-04-23T12:22:28.323Z,54.52
2019-04-23T12:25:02.227Z,54.8
2019-04-23T12:25:16.215Z,54.64
2019-04-23T12:25:51.336Z,54.61
2019-04-23T12:26:35.223Z,54.83
2019-04-23T12:27:13.368Z,55.6
2019-04-23T12:27:41.827Z,55.48
2019-04-23T12:28:37.874Z,55.29
2019-04-23T12:29:18.371Z,54.32
2019-04-23T12:29:52.080Z,54.22
2019-04-23T12:30:39.271Z,54.35
2019-04-23T12:31:15.716Z,54.25
2019-04-23T12:31:55.550Z,54.42
2019-04-23T12:33:27.845Z,54.32
2019-04-23T12:34:03.379Z,54.32
2019-04-23T12:34:52.157Z,54.03
2019-04-23T12:36:01.897Z,54.13
2019-04-23T12:37:28.201Z,54.52
2019-04-23T12:38:13.510Z,54.54
2019-04-23T12:38:38.249Z,54.32
2019-04-23T12:39:32.713Z,54.52
2019-04-23T12:41:28.132Z,54.32
2019-04-23T12:42:33.969Z,53.65
2019-04-23T12:43:46.956Z,54.52
2019-04-23T12:44:14.518Z,54.35
2019-04-23T12:45:12.860Z,54.25
2019-04-23T12:46:15.963Z,53.58
2019-04-23T12:47:01.076Z,54.32
2019-04-23T12:47:49.030Z,54.32
2019-04-23T12:49:05.789Z,54.03
2019-04-23T12:50:54.823Z,53.36
2019-04-23T12:51:46.497Z,54.06
2019-04-23T12:52:33.748Z,54.44
2019-04-23T12:53:46.693Z,54.32
2019-04-23T12:54:40.866Z,54.32
2019-04-23T12:55:43.276Z,54.64
2019-04-23T12:56:40.145Z,54.64
2019-04-23T12:57:16.989Z,54.54
2019-04-23T12:58:09.257Z,54.35
2019-04-23T12:58:27.487Z,54.42
2019-04-23T12:59:13.892Z,54.61
2019-04-23T12:59:56.643Z,54.64
2019-04-23T13:01:03.789Z,54.54
2019-04-23T13:01:13.284Z,54.35
2019-04-23T13:02:13.668Z,53.19
2019-04-23T13:02:44.089Z,54.06
2019-04-23T13:03:16.343Z,53.84
2019-04-23T13:03:50.217Z,53.48
2019-04-23T13:04:41.112Z,53.29
2019-04-23T13:05:21.243Z,53.94
2019-04-23T13:05:52.367Z,53.84
2019-04-23T13:06:36.327Z,53.74
2019-04-23T13:07:33.168Z,54.25
2019-04-23T13:08:07.404Z,54.35
2019-04-23T13:08:42.782Z,54.06
2019-04-23T13:09:41.684Z,54.54
2019-04-23T13:10:08.030Z,54.44
2019-04-23T13:10:56.195Z,54.74
2019-04-23T13:11:34.254Z,54.54
2019-04-23T13:12:19.995Z,53.87
2019-04-23T13:13:01.202Z,54.25
2019-04-23T13:14:15.520Z,53.96
2019-04-23T13:14:55.366Z,54.16
2019-04-23T13:15:34.117Z,54.16
2019-04-23T13:16:15.937Z,54.54
2019-04-23T13:17:53.481Z,53.29
2019-04-23T13:18:22.783Z,53.67
2019-04-23T13:19:11.397Z,53.87
2019-04-23T13:19:53.496Z,53.96
2019-04-23T13:20:27.191Z,53.77
2019-04-23T13:21:04.185Z,53.29
2019-04-23T13:21:56.581Z,53.19
2019-04-23T13:22:39.403Z,53.58
2019-04-23T13:23:16.263Z,53.77
2019-04-23T13:23:45.547Z,53.48
2019-04-23T13:24:32.471Z,53.96
2019-04-23T13:25:53.770Z,53.58
2019-04-23T13:26:29.495Z,53.19
2019-04-23T13:27:19.490Z,53.77
2019-04-23T13:28:11.856Z,53.77
2019-04-23T13:28:37.050Z,53.87
2019-04-23T13:29:26.832Z,54.06
2019-04-23T13:30:05.620Z,54.35
2019-04-23T13:30:52.896Z,54.06
2019-04-23T13:31:20.054Z,54.25
2019-04-23T13:32:09.107Z,53.58
2019-04-23T13:33:49.476Z,53.77
2019-04-23T13:34:22.333Z,53.96
2019-04-23T13:35:16.814Z,54.16
2019-04-23T13:35:52.652Z,53.87
2019-04-23T13:36:32.157Z,53.77
2019-04-23T13:37:18.577Z,53.77
2019-04-23T13:37:58.629Z,53.39
2019-04-23T13:38:36.103Z,53.77
2019-04-23T13:39:17.779Z,53.87
2019-04-23T13:40:16.319Z,53.87
2019-04-23T13:41:19.954Z,53.29
2019-04-23T13:42:02.744Z,53.58
2019-04-23T13:42:44.420Z,53
2019-04-23T13:43:51.124Z,53.58
2019-04-23T13:44:45.386Z,53.19
2019-04-23T13:45:52.838Z,53.29
2019-04-23T13:46:48.936Z,53.48
2019-04-23T13:48:09.649Z,54.25
2019-04-23T13:48:46.327Z,54.35
2019-04-23T13:49:41.794Z,54.83
2019-04-23T13:50:29.267Z,55.51
2019-04-23T13:51:39.214Z,53.7
2019-04-23T13:52:47.662Z,53.48
2019-04-23T13:53:58.234Z,53.87
2019-04-23T13:54:54.334Z,53.58
2019-04-23T13:55:43.991Z,53.39
2019-04-23T13:57:39.570Z,53.19
2019-04-23T13:59:21.212Z,52.33
2019-04-23T13:59:55.503Z,52.33
2019-04-23T14:00:51.750Z,52.61
2019-04-23T14:01:25.243Z,53.39
2019-04-23T14:02:01.675Z,52.52
2019-04-23T14:02:42.213Z,53
2019-04-23T14:03:30.041Z,53.67
2019-04-23T14:04:03.030Z,53.09
2019-04-23T14:04:49.891Z,52.81
2019-04-23T14:05:26.338Z,52.25
2019-04-23T14:06:13.527Z,52.81
2019-04-23T14:06:49.244Z,52.13
2019-04-23T14:07:38.179Z,52.13
2019-04-23T14:08:40.636Z,52.06
2019-04-23T14:08:58.699Z,52.81
2019-04-23T14:10:28.595Z,52.13
2019-04-23T14:10:51.540Z,51.75
2019-04-23T14:11:30.565Z,52.13
2019-04-23T14:12:21.997Z,52.13
2019-04-23T14:13:14.329Z,52.42
2019-04-23T14:13:49.181Z,52.71
2019-04-23T14:14:34.244Z,52.73
2019-04-23T14:15:03.009Z,52.42
2019-04-23T14:16:33.811Z,52.33
2019-04-23T14:17:16.395Z,52.33
2019-04-23T14:18:10.274Z,52.71
2019-04-23T14:19:22.446Z,53.29
2019-04-23T14:19:53.021Z,53.19
2019-04-23T14:20:31.432Z,51.84
2019-04-23T14:21:18.737Z,51.07
2019-04-23T14:22:01.254Z,51.97
2019-04-23T14:23:19.349Z,51.75
2019-04-23T14:25:01.020Z,52.16
2019-04-23T14:25:15.714Z,52.33
2019-04-23T14:26:57.948Z,53.03
2019-04-23T14:27:25.640Z,52.16
2019-04-23T14:28:13.315Z,52.06
2019-04-23T14:29:27.799Z,51.97
2019-04-23T14:30:12.446Z,52.16
2019-04-23T14:30:53.228Z,52.35
2019-04-23T14:31:34.892Z,52.25
2019-04-23T14:32:22.085Z,52.23
2019-04-23T14:33:11.331Z,51.97
2019-04-23T14:34:32.924Z,51.87
2019-04-23T14:35:25.078Z,51.97
2019-04-23T14:37:16.778Z,51.2
2019-04-23T14:38:15.408Z,52.16
2019-04-23T14:38:37.191Z,51.77
2019-04-23T14:39:23.852Z,52.25
2019-04-23T14:40:01.130Z,51.97
2019-04-23T14:40:55.791Z,51.77
2019-04-23T14:42:17.866Z,51.58
2019-04-23T14:43:06.039Z,51.58
